createdAt,value
2022-10-09T00:00:03.340Z,28.10
2022-10-09T00:02:41.968Z,28.32
2022-10-09T00:05:12.680Z,28.36
2022-10-09T00:07:43.183Z,28.39
2022-10-09T00:10:13.567Z,28.42
2022-10-09T00:12:44.035Z,28.46
2022-10-09T00:15:14.785Z,28.47
2022-10-09T00:17:45.337Z,28.47
2022-10-09T00:20:16.153Z,28.47
2022-10-09T00:22:46.971Z,28.55
2022-10-09T00:25:17.641Z,28.53
2022-10-09T00:27:48.014Z,28.58
2022-10-09T00:30:18.855Z,28.62
2022-10-09T00:32:49.518Z,28.66
2022-10-09T00:35:20.323Z,28.66
2022-10-09T00:37:50.918Z,28.68
2022-10-09T00:40:21.890Z,28.72
2022-10-09T00:43:01.640Z,28.19
2022-10-09T00:45:33.056Z,28.73
2022-10-09T00:48:07.933Z,28.19
2022-10-09T00:50:42.888Z,28.75
2022-10-09T00:53:17.999Z,28.72
2022-10-09T00:55:48.957Z,28.81
2022-10-09T00:58:20.314Z,28.90
2022-10-09T01:00:51.224Z,28.92
2022-10-09T01:03:21.646Z,28.97
2022-10-09T01:06:37.818Z,28.86
2022-10-09T01:09:27.281Z,28.45
2022-10-09T01:12:28.104Z,28.91
2022-10-09T01:15:18.775Z,28.94
2022-10-09T01:17:55.879Z,29.07
2022-10-09T01:20:34.887Z,29.07
2022-10-09T01:23:28.933Z,29.09
2022-10-09T01:26:11.227Z,29.00
2022-10-09T01:28:41.967Z,28.72
2022-10-09T01:31:14.280Z,28.95
2022-10-09T01:33:46.146Z,28.88
2022-10-09T01:36:19.384Z,28.71
2022-10-09T01:38:50.278Z,28.96
2022-10-09T01:41:22.246Z,28.55
2022-10-09T01:43:52.786Z,28.93
2022-10-09T01:46:25.074Z,29.10
2022-10-09T01:49:10.768Z,28.74
2022-10-09T01:52:01.987Z,28.17
2022-10-09T01:54:52.031Z,28.54
2022-10-09T01:57:33.796Z,29.17
2022-10-09T02:00:08.840Z,28.77
2022-10-09T02:02:44.460Z,29.31
2022-10-09T02:05:24.160Z,29.32
2022-10-09T02:07:56.567Z,29.26
2022-10-09T02:10:28.458Z,29.01
2022-10-09T02:13:01.500Z,29.40
2022-10-09T02:15:57.936Z,28.77
2022-10-09T02:18:44.263Z,29.45
2022-10-09T02:21:24.112Z,29.13
2022-10-09T02:23:58.929Z,28.97
2022-10-09T02:26:29.405Z,29.45
2022-10-09T02:29:00.382Z,29.55
2022-10-09T02:31:38.674Z,29.09
2022-10-09T02:34:12.006Z,29.09
2022-10-09T02:36:42.500Z,29.51
2022-10-09T02:39:13.527Z,29.60
2022-10-09T02:41:44.086Z,29.65
2022-10-09T02:44:14.539Z,29.65
2022-10-09T02:46:45.029Z,29.53
2022-10-09T02:49:15.605Z,29.67
2022-10-09T02:51:46.090Z,29.68
2022-10-09T02:54:16.926Z,29.64
2022-10-09T02:56:47.380Z,29.70
2022-10-09T02:59:17.774Z,29.71
2022-10-09T03:01:48.285Z,29.61
2022-10-09T03:04:18.803Z,29.68
2022-10-09T03:06:49.217Z,29.72
2022-10-09T03:09:19.564Z,29.73
2022-10-09T03:11:49.904Z,29.68
2022-10-09T03:14:20.235Z,29.75
2022-10-09T03:16:50.696Z,29.76
2022-10-09T03:19:21.152Z,29.58
2022-10-09T03:21:51.644Z,29.45
2022-10-09T03:24:22.624Z,29.39
2022-10-09T03:26:53.491Z,29.19
2022-10-09T03:29:24.047Z,29.22
2022-10-09T03:31:54.617Z,29.32
2022-10-09T03:34:25.522Z,29.24
2022-10-09T03:36:56.435Z,29.25
2022-10-09T03:39:26.892Z,29.28
2022-10-09T03:41:57.490Z,29.27
2022-10-09T03:44:28.020Z,29.24
2022-10-09T03:46:58.422Z,29.27
2022-10-09T03:49:29.062Z,29.28
2022-10-09T03:51:59.614Z,29.19
2022-10-09T03:54:30.173Z,29.29
2022-10-09T03:57:00.808Z,29.30
2022-10-09T03:59:31.209Z,29.28
2022-10-09T04:02:01.752Z,29.29
2022-10-09T04:04:32.141Z,29.29
2022-10-09T04:07:02.901Z,29.29
2022-10-09T04:09:33.398Z,29.33
2022-10-09T04:12:04.764Z,29.25
2022-10-09T04:14:35.267Z,29.27
2022-10-09T04:17:05.756Z,29.25
2022-10-09T04:19:36.260Z,29.29
2022-10-09T04:22:06.696Z,29.31
2022-10-09T04:24:37.113Z,29.23
2022-10-09T04:27:07.760Z,29.03
2022-10-09T04:29:38.636Z,29.32
2022-10-09T04:32:09.476Z,29.34
2022-10-09T04:34:39.977Z,29.34
2022-10-09T04:37:10.377Z,29.30
2022-10-09T04:39:40.754Z,29.40
2022-10-09T04:42:11.539Z,29.41
2022-10-09T04:44:42.066Z,29.54
2022-10-09T04:47:12.519Z,29.37
2022-10-09T04:49:43.292Z,29.61
2022-10-09T04:52:13.693Z,29.78
2022-10-09T04:54:44.176Z,29.86
2022-10-09T04:57:15.143Z,29.91
2022-10-09T04:59:45.993Z,29.90
2022-10-09T05:02:16.398Z,30.00
2022-10-09T05:04:48.465Z,30.05
2022-10-09T05:07:19.212Z,30.05
2022-10-09T05:09:50.005Z,30.07
2022-10-09T05:12:20.384Z,29.94
2022-10-09T05:14:50.818Z,29.81
2022-10-09T05:17:23.519Z,29.91
2022-10-09T05:19:54.287Z,29.92
2022-10-09T05:22:24.748Z,29.77
2022-10-09T05:24:55.306Z,29.94
2022-10-09T05:27:25.818Z,29.84
2022-10-09T05:29:56.321Z,30.00
2022-10-09T05:32:26.811Z,30.04
2022-10-09T05:34:57.605Z,30.08
2022-10-09T05:37:28.561Z,30.08
2022-10-09T05:39:59.008Z,29.91
2022-10-09T05:42:29.592Z,29.70
2022-10-09T05:45:00.022Z,29.92
2022-10-09T05:47:32.206Z,29.48
2022-10-09T05:50:02.909Z,29.85
2022-10-09T05:52:33.357Z,29.81
2022-10-09T05:55:04.232Z,29.93
2022-10-09T05:57:36.887Z,29.91
2022-10-09T06:00:08.055Z,29.74
2022-10-09T06:02:42.559Z,29.82
2022-10-09T06:05:13.176Z,29.75
2022-10-09T06:07:43.527Z,29.75
2022-10-09T06:10:14.291Z,29.69
2022-10-09T06:12:44.706Z,29.49
2022-10-09T06:15:15.365Z,29.60
2022-10-09T06:17:45.734Z,29.58
2022-10-09T06:20:17.991Z,29.56
2022-10-09T06:22:48.698Z,29.49
2022-10-09T06:25:19.243Z,29.50
2022-10-09T06:27:49.621Z,29.47
2022-10-09T06:30:19.999Z,29.47
2022-10-09T06:32:50.951Z,29.44
2022-10-09T06:35:21.834Z,29.39
2022-10-09T06:37:52.204Z,29.30
2022-10-09T06:40:22.621Z,29.38
2022-10-09T06:42:53.156Z,29.36
2022-10-09T06:46:08.404Z,29.35
2022-10-09T06:48:24.465Z,29.34
2022-10-09T06:50:54.913Z,29.34
2022-10-09T06:53:25.353Z,29.31
2022-10-09T06:55:58.652Z,29.34
2022-10-09T06:58:29.875Z,29.35
2022-10-09T07:01:16.192Z,28.35
2022-10-09T07:03:49.288Z,28.43
2022-10-09T07:06:25.031Z,28.81
2022-10-09T07:09:02.429Z,28.91
2022-10-09T07:11:53.879Z,29.21
2022-10-09T07:14:24.330Z,29.31
2022-10-09T07:16:55.007Z,29.31
2022-10-09T07:19:25.368Z,29.30
2022-10-09T07:21:56.147Z,29.28
2022-10-09T07:24:26.762Z,29.28
2022-10-09T07:26:58.389Z,29.21
2022-10-09T07:29:28.797Z,29.24
2022-10-09T07:31:59.226Z,29.27
2022-10-09T07:34:29.571Z,29.27
2022-10-09T07:37:00.360Z,29.27
2022-10-09T07:39:31.274Z,29.25
2022-10-09T07:42:01.752Z,29.27
2022-10-09T07:44:32.413Z,29.13
2022-10-09T07:47:03.218Z,29.28
2022-10-09T07:49:33.596Z,29.32
2022-10-09T07:52:04.023Z,29.33
2022-10-09T07:54:34.675Z,29.34
2022-10-09T07:57:05.190Z,29.35
2022-10-09T07:59:35.558Z,29.37
2022-10-09T08:02:05.997Z,29.34
2022-10-09T08:04:38.919Z,28.95
2022-10-09T08:07:09.301Z,29.37
2022-10-09T08:09:40.878Z,29.37
2022-10-09T08:12:11.732Z,29.37
2022-10-09T08:14:42.379Z,29.39
2022-10-09T08:17:13.263Z,29.32
2022-10-09T08:19:43.725Z,29.39
2022-10-09T08:22:14.340Z,29.42
2022-10-09T08:24:44.838Z,29.36
2022-10-09T08:27:15.783Z,29.39
2022-10-09T08:29:46.144Z,29.39
2022-10-09T08:32:16.694Z,29.43
2022-10-09T08:34:48.726Z,29.28
2022-10-09T08:37:19.927Z,29.46
2022-10-09T08:39:50.380Z,29.47
2022-10-09T08:42:44.139Z,29.16
2022-10-09T08:45:19.085Z,28.93
2022-10-09T08:47:57.571Z,29.49
2022-10-09T08:50:33.775Z,29.45
2022-10-09T08:53:06.585Z,29.25
2022-10-09T08:55:53.430Z,29.40
2022-10-09T08:58:27.109Z,29.56
2022-10-09T09:01:06.403Z,29.07
2022-10-09T09:03:48.413Z,29.60
2022-10-09T09:06:37.085Z,29.59
2022-10-09T09:09:40.823Z,29.56
2022-10-09T09:12:16.634Z,29.67
2022-10-09T09:14:57.597Z,29.09
2022-10-09T09:17:49.337Z,29.62
2022-10-09T09:20:26.654Z,29.71
2022-10-09T09:23:00.569Z,29.71
2022-10-09T09:25:36.622Z,29.67
2022-10-09T09:28:36.913Z,29.62
2022-10-09T09:31:29.669Z,29.38
2022-10-09T09:34:00.152Z,29.76
2022-10-09T09:36:40.961Z,29.63
2022-10-09T09:42:16.034Z,29.45
2022-10-09T09:45:23.337Z,30.01
2022-10-09T09:47:59.023Z,30.24
2022-10-09T09:51:10.201Z,30.36
2022-10-09T09:53:38.182Z,30.34
2022-10-09T09:56:15.327Z,30.24
2022-10-09T09:58:51.714Z,30.57
2022-10-09T10:01:23.595Z,30.62
2022-10-09T10:04:00.226Z,29.98
2022-10-09T10:06:36.974Z,29.95
2022-10-09T10:09:16.307Z,30.05
2022-10-09T10:12:04.636Z,30.25
2022-10-09T10:14:36.649Z,30.34
2022-10-09T10:17:07.104Z,30.32
2022-10-09T10:19:40.084Z,30.36
2022-10-09T10:22:26.102Z,29.97
2022-10-09T10:25:00.535Z,30.33
2022-10-09T10:27:42.137Z,30.34
2022-10-09T10:30:19.311Z,30.24
2022-10-09T10:32:57.555Z,30.34
2022-10-09T10:35:45.884Z,29.76
2022-10-09T10:38:16.335Z,30.34
2022-10-09T10:41:04.830Z,29.89
2022-10-09T10:43:45.756Z,30.34
2022-10-09T10:46:39.379Z,30.16
2022-10-09T10:49:13.002Z,29.99
2022-10-09T10:51:43.341Z,30.33
2022-10-09T10:54:28.550Z,30.34
2022-10-09T10:57:08.867Z,30.28
2022-10-09T11:00:07.618Z,30.24
2022-10-09T11:03:23.751Z,30.25
2022-10-09T11:06:08.655Z,30.28
2022-10-09T11:09:06.839Z,29.72
2022-10-09T11:11:40.192Z,30.30
2022-10-09T11:14:25.373Z,30.26
2022-10-09T11:16:58.270Z,30.28
2022-10-09T11:20:00.718Z,30.13
2022-10-09T11:22:50.426Z,30.01
2022-10-09T11:25:47.815Z,29.93
2022-10-09T11:28:28.727Z,30.19
2022-10-09T11:31:17.873Z,30.20
2022-10-09T11:33:52.668Z,29.80
2022-10-09T11:36:39.301Z,30.19
2022-10-09T11:39:27.905Z,30.09
2022-10-09T11:41:59.488Z,30.20
2022-10-09T11:44:47.867Z,30.19
2022-10-09T11:47:39.052Z,30.19
2022-10-09T11:50:40.218Z,29.71
2022-10-09T11:53:26.417Z,30.14
2022-10-09T11:56:20.970Z,30.13
2022-10-09T11:59:03.629Z,30.10
2022-10-09T12:01:40.976Z,30.12
2022-10-09T12:04:14.186Z,30.17
2022-10-09T12:06:51.729Z,30.15
2022-10-09T12:09:28.166Z,30.12
2022-10-09T12:12:04.539Z,30.13
2022-10-09T12:14:38.727Z,29.73
2022-10-09T12:17:24.532Z,30.06
2022-10-09T12:20:16.903Z,29.61
2022-10-09T12:23:07.263Z,29.81
2022-10-09T12:25:47.392Z,29.62
2022-10-09T12:28:37.612Z,29.46
2022-10-09T12:31:19.147Z,29.84
2022-10-09T12:34:03.647Z,29.58
2022-10-09T12:36:35.233Z,30.05
2022-10-09T12:39:24.059Z,29.91
2022-10-09T12:41:58.421Z,30.01
2022-10-09T12:44:35.663Z,29.14
2022-10-09T12:47:16.071Z,29.70
2022-10-09T12:50:04.087Z,29.43
2022-10-09T12:52:35.142Z,29.99
2022-10-09T12:55:16.990Z,29.98
2022-10-09T12:57:47.537Z,29.73
2022-10-09T13:00:18.302Z,29.95
2022-10-09T13:02:49.142Z,29.95
2022-10-09T13:05:20.001Z,29.95
2022-10-09T13:07:55.807Z,29.96
2022-10-09T13:10:26.525Z,29.81
2022-10-09T13:12:59.952Z,29.95
2022-10-09T13:15:37.963Z,29.93
2022-10-09T13:18:25.853Z,29.86
2022-10-09T13:21:23.373Z,29.92
2022-10-09T13:23:54.138Z,29.91
2022-10-09T13:26:30.903Z,29.84
2022-10-09T13:29:03.775Z,29.91
2022-10-09T13:31:38.143Z,29.90
2022-10-09T13:34:15.381Z,29.89
2022-10-09T13:36:46.175Z,29.77
2022-10-09T13:39:17.231Z,29.76
2022-10-09T13:41:50.173Z,29.87
2022-10-09T13:44:20.969Z,29.85
2022-10-09T13:46:53.876Z,29.91
2022-10-09T13:49:24.636Z,29.89
2022-10-09T13:51:55.811Z,29.37
2022-10-09T13:54:26.915Z,29.76
2022-10-09T13:56:58.337Z,29.78
2022-10-09T13:59:28.970Z,29.86
2022-10-09T14:02:00.181Z,29.85
2022-10-09T14:04:31.634Z,29.83
2022-10-09T14:07:02.327Z,29.82
2022-10-09T14:09:33.181Z,29.80
2022-10-09T14:12:04.199Z,29.78
2022-10-09T14:14:35.366Z,29.83
2022-10-09T14:17:06.219Z,29.82
2022-10-09T14:19:36.952Z,29.84
2022-10-09T14:22:07.726Z,29.80
2022-10-09T14:24:38.795Z,29.84
2022-10-09T14:27:09.313Z,29.80
2022-10-09T14:29:40.068Z,29.69
2022-10-09T14:32:10.715Z,29.74
2022-10-09T14:34:41.498Z,29.79
2022-10-09T14:37:23.917Z,29.81
2022-10-09T14:40:03.074Z,29.78
2022-10-09T14:42:33.850Z,29.69
2022-10-09T14:45:04.582Z,29.77
2022-10-09T14:47:35.146Z,29.76
2022-10-09T14:50:06.883Z,29.75
2022-10-09T14:52:40.326Z,29.77
2022-10-09T14:55:11.395Z,29.38
2022-10-09T14:57:41.753Z,29.61
2022-10-09T15:00:12.968Z,29.56
2022-10-09T15:05:19.151Z,29.29
2022-10-09T15:07:49.820Z,29.30
2022-10-09T15:10:20.616Z,29.29
2022-10-09T15:12:51.057Z,29.25
2022-10-09T15:15:21.504Z,29.19
2022-10-09T15:17:52.358Z,29.15
2022-10-09T15:20:22.902Z,29.12
2022-10-09T15:22:53.384Z,29.04
2022-10-09T15:25:24.053Z,28.94
2022-10-09T15:27:55.354Z,28.96
2022-10-09T15:30:26.333Z,28.79
2022-10-09T15:32:58.111Z,29.05
2022-10-09T15:35:28.536Z,29.13
2022-10-09T15:37:59.125Z,29.19
2022-10-09T15:40:30.074Z,28.83
2022-10-09T15:43:00.467Z,29.14
2022-10-09T15:45:30.902Z,28.68
2022-10-09T15:48:01.323Z,29.23
2022-10-09T15:50:31.689Z,29.23
2022-10-09T15:53:02.281Z,29.21
2022-10-09T15:55:32.660Z,29.20
2022-10-09T15:58:03.122Z,29.18
2022-10-09T16:00:38.379Z,28.98
2022-10-09T16:03:09.644Z,29.15
2022-10-09T16:05:41.994Z,28.67
2022-10-09T16:08:13.936Z,29.14
2022-10-09T16:10:49.016Z,28.62
2022-10-09T16:13:20.655Z,29.11
2022-10-09T16:15:51.851Z,29.06
2022-10-09T16:18:24.183Z,29.05
2022-10-09T16:20:54.664Z,28.96
2022-10-09T16:23:25.078Z,28.88
2022-10-09T16:26:01.197Z,28.52
2022-10-09T16:28:32.419Z,28.99
2022-10-09T16:31:03.265Z,28.96
2022-10-09T16:33:33.681Z,28.81
2022-10-09T16:36:11.640Z,28.87
2022-10-09T16:38:43.175Z,28.90
2022-10-09T16:41:19.363Z,28.84
2022-10-09T16:43:52.412Z,28.87
2022-10-09T16:46:30.404Z,28.82
2022-10-09T16:49:02.209Z,28.80
2022-10-09T16:51:37.928Z,28.68
2022-10-09T16:54:08.568Z,28.77
2022-10-09T16:56:41.316Z,28.31
2022-10-09T16:59:14.931Z,28.26
2022-10-09T17:01:46.560Z,28.76
2022-10-09T17:04:17.836Z,28.74
2022-10-09T17:06:48.338Z,28.68
2022-10-09T17:09:19.168Z,28.69
2022-10-09T17:11:49.867Z,28.65
2022-10-09T17:14:20.395Z,28.58
2022-10-09T17:16:50.965Z,28.68
2022-10-09T17:19:22.755Z,28.66
2022-10-09T17:21:53.192Z,28.65
2022-10-09T17:24:23.700Z,28.64
2022-10-09T17:26:54.243Z,28.64
2022-10-09T17:29:25.052Z,28.63
2022-10-09T17:31:55.537Z,28.59
2022-10-09T17:34:26.186Z,28.51
2022-10-09T17:36:57.614Z,28.58
2022-10-09T17:39:28.288Z,28.57
2022-10-09T17:41:59.138Z,28.57
2022-10-09T17:44:32.899Z,28.40
2022-10-09T17:47:04.345Z,28.52
2022-10-09T17:49:34.807Z,28.49
2022-10-09T17:52:05.286Z,28.51
2022-10-09T17:54:35.801Z,28.50
2022-10-09T17:57:08.081Z,28.49
2022-10-09T17:59:39.074Z,28.49
2022-10-09T18:02:09.562Z,28.32
2022-10-09T18:04:40.181Z,28.46
2022-10-09T18:07:10.650Z,28.46
2022-10-09T18:09:41.126Z,28.39
2022-10-09T18:12:11.576Z,28.43
2022-10-09T18:14:42.117Z,28.43
2022-10-09T18:17:12.422Z,28.40
2022-10-09T18:19:42.870Z,28.37
2022-10-09T18:22:13.401Z,28.37
2022-10-09T18:24:44.482Z,28.38
2022-10-09T18:27:14.929Z,28.35
2022-10-09T18:29:45.321Z,28.35
2022-10-09T18:32:15.695Z,28.35
2022-10-09T18:34:46.711Z,28.36
2022-10-09T18:37:17.448Z,28.35
2022-10-09T18:39:49.511Z,28.35
2022-10-09T18:42:19.940Z,27.96
2022-10-09T18:44:50.310Z,28.34
2022-10-09T18:47:23.769Z,27.87
2022-10-09T18:49:57.795Z,27.80
2022-10-09T18:52:28.450Z,28.32
2022-10-09T18:55:00.506Z,28.11
2022-10-09T18:57:30.997Z,28.27
2022-10-09T19:00:03.194Z,28.18
2022-10-09T19:02:33.790Z,28.28
2022-10-09T19:05:04.981Z,28.17
2022-10-09T19:07:35.540Z,28.12
2022-10-09T19:10:08.025Z,28.27
2022-10-09T19:12:38.379Z,28.18
2022-10-09T19:15:12.029Z,28.16
2022-10-09T19:17:43.099Z,28.25
2022-10-09T19:20:13.599Z,28.24
2022-10-09T19:22:44.019Z,28.20
2022-10-09T19:25:14.573Z,28.20
2022-10-09T19:27:45.358Z,28.14
2022-10-09T19:30:16.372Z,28.15
2022-10-09T19:32:47.187Z,28.18
2022-10-09T19:35:17.777Z,28.15
2022-10-09T19:37:49.043Z,28.13
2022-10-09T19:40:19.656Z,28.14
2022-10-09T19:42:49.988Z,28.13
2022-10-09T19:45:20.381Z,28.00
2022-10-09T19:47:54.222Z,28.11
2022-10-09T19:50:24.958Z,28.07
2022-10-09T19:52:56.035Z,27.85
2022-10-09T19:55:30.746Z,28.07
2022-10-09T19:58:02.056Z,27.94
2022-10-09T20:00:32.741Z,28.06
2022-10-09T20:03:03.392Z,28.05
2022-10-09T20:05:34.781Z,28.04
2022-10-09T20:08:05.395Z,27.96
2022-10-09T20:10:39.445Z,28.02
2022-10-09T20:13:10.083Z,28.02
2022-10-09T20:15:44.094Z,27.46
2022-10-09T20:18:14.451Z,28.00
2022-10-09T20:20:49.152Z,27.44
2022-10-09T20:23:19.603Z,27.92
2022-10-09T20:25:50.031Z,28.00
2022-10-09T20:28:20.446Z,27.98
2022-10-09T20:31:00.872Z,27.54
2022-10-09T20:33:31.325Z,27.95
2022-10-09T20:36:01.848Z,27.95
2022-10-09T20:38:32.480Z,27.94
2022-10-09T20:41:05.786Z,27.92
2022-10-09T20:43:41.242Z,27.92
2022-10-09T20:46:14.684Z,27.05
2022-10-09T20:48:46.033Z,27.89
2022-10-09T20:51:17.027Z,27.86
2022-10-09T20:53:52.202Z,27.94
2022-10-09T20:56:24.551Z,27.93
2022-10-09T20:58:57.089Z,27.91
2022-10-09T21:01:29.448Z,27.75
2022-10-09T21:04:00.728Z,27.88
2022-10-09T21:06:31.692Z,27.85
2022-10-09T21:09:02.111Z,27.86
2022-10-09T21:11:38.481Z,27.83
2022-10-09T21:14:08.890Z,27.83
2022-10-09T21:16:39.331Z,27.80
2022-10-09T21:19:12.186Z,27.32
2022-10-09T21:21:45.337Z,27.81
2022-10-09T21:24:17.799Z,27.72
2022-10-09T21:26:48.535Z,27.79
2022-10-09T21:29:19.350Z,27.80
2022-10-09T21:31:49.754Z,27.80
2022-10-09T21:34:20.182Z,27.79
2022-10-09T21:37:19.943Z,27.79
2022-10-09T21:39:44.401Z,27.76
2022-10-09T21:42:14.770Z,27.76
2022-10-09T21:44:45.136Z,27.76
2022-10-09T21:47:19.874Z,27.78
2022-10-09T21:49:50.225Z,27.68
2022-10-09T21:52:20.644Z,27.75
2022-10-09T21:54:51.092Z,27.61
2022-10-09T21:57:21.536Z,27.75
2022-10-09T21:59:52.418Z,27.74
2022-10-09T22:02:23.120Z,27.72
2022-10-09T22:04:58.151Z,27.65
2022-10-09T22:07:31.314Z,27.68
2022-10-09T22:10:01.934Z,27.68
2022-10-09T22:12:32.554Z,27.55
2022-10-09T22:15:03.186Z,27.60
2022-10-09T22:17:33.548Z,27.50
2022-10-09T22:20:05.198Z,27.58
2022-10-09T22:22:35.670Z,27.55
2022-10-09T22:25:06.627Z,27.48
2022-10-09T22:27:37.544Z,27.38
2022-10-09T22:30:09.204Z,27.50
2022-10-09T22:32:39.780Z,27.49
2022-10-09T22:35:10.778Z,27.43
2022-10-09T22:37:41.510Z,27.44
2022-10-09T22:40:12.145Z,27.46
2022-10-09T22:42:42.680Z,27.46
2022-10-09T22:45:13.552Z,27.45
2022-10-09T22:47:45.745Z,27.43
2022-10-09T22:50:16.587Z,27.42
2022-10-09T22:52:47.258Z,27.32
2022-10-09T22:55:18.576Z,27.42
2022-10-09T22:57:49.023Z,27.42
2022-10-09T23:00:19.643Z,27.41
2022-10-09T23:02:50.298Z,27.25
2022-10-09T23:05:20.986Z,27.30
2022-10-09T23:07:51.557Z,27.39
2022-10-09T23:10:22.126Z,27.46
2022-10-09T23:12:52.662Z,27.52
2022-10-09T23:15:23.264Z,27.57
2022-10-09T23:17:53.671Z,27.50
2022-10-09T23:20:24.097Z,27.70
2022-10-09T23:22:55.164Z,27.73
2022-10-09T23:25:25.535Z,27.79
2022-10-09T23:27:55.885Z,27.83
2022-10-09T23:30:26.198Z,27.88
2022-10-09T23:32:56.899Z,27.77
2022-10-09T23:35:27.592Z,27.84
2022-10-09T23:37:58.033Z,28.06
2022-10-09T23:40:28.466Z,28.15
2022-10-09T23:42:58.947Z,28.20
2022-10-09T23:45:29.413Z,28.33
2022-10-09T23:47:59.861Z,28.37
2022-10-09T23:50:30.204Z,28.44
2022-10-09T23:53:00.618Z,28.49
2022-10-09T23:55:30.961Z,28.48
2022-10-09T23:58:01.428Z,28.59
